createdAt,value
2018-09-06T00:01:01.665Z,17.20
2018-09-06T00:03:29.010Z,17.10
2018-09-06T00:05:56.366Z,17.10
2018-09-06T00:08:24.321Z,17.10
2018-09-06T00:10:52.023Z,17.10
2018-09-06T00:13:19.437Z,17.20
2018-09-06T00:15:46.966Z,17.20
2018-09-06T00:18:14.451Z,17.20
2018-09-06T00:20:41.803Z,17.20
2018-09-06T00:23:09.210Z,17.20
2018-09-06T00:25:37.142Z,17.20
2018-09-06T00:28:04.630Z,17.20
2018-09-06T00:30:32.095Z,17.20
2018-09-06T00:32:59.643Z,17.20
2018-09-06T00:35:27.123Z,17.20
2018-09-06T00:37:54.482Z,17.10
2018-09-06T00:40:21.834Z,17.10
2018-09-06T00:42:49.186Z,17.00
2018-09-06T00:45:16.569Z,17.00
2018-09-06T00:47:43.887Z,17.00
2018-09-06T00:50:18.410Z,17.00
2018-09-06T00:52:47.318Z,16.90
2018-09-06T00:55:14.707Z,17.00
2018-09-06T00:57:42.107Z,17.00
2018-09-06T01:00:09.483Z,16.90
2018-09-06T01:02:36.893Z,16.90
2018-09-06T01:05:04.243Z,17.00
2018-09-06T01:07:31.661Z,17.00
2018-09-06T01:09:59.619Z,17.00
2018-09-06T01:12:26.984Z,17.00
2018-09-06T01:14:54.546Z,17.00
2018-09-06T01:17:21.964Z,17.10
2018-09-06T01:19:49.346Z,17.10
2018-09-06T01:22:16.703Z,17.10
2018-09-06T01:24:44.044Z,17.10
2018-09-06T01:27:11.395Z,17.10
2018-09-06T01:29:38.732Z,17.10
2018-09-06T01:32:06.084Z,17.10
2018-09-06T01:34:33.572Z,17.20
2018-09-06T01:37:01.032Z,17.10
2018-09-06T01:39:28.367Z,17.10
2018-09-06T01:41:55.754Z,17.10
2018-09-06T01:44:23.089Z,17.10
2018-09-06T01:46:50.442Z,17.20
2018-09-06T01:49:17.885Z,17.10
2018-09-06T01:51:45.321Z,17.20
2018-09-06T01:54:12.653Z,17.20
2018-09-06T01:56:40.083Z,17.20
2018-09-06T01:59:07.432Z,17.20
2018-09-06T02:01:34.786Z,17.20
2018-09-06T02:04:02.194Z,17.20
2018-09-06T02:06:29.687Z,17.20
2018-09-06T02:08:57.151Z,17.30
2018-09-06T02:11:24.508Z,17.30
2018-09-06T02:13:51.853Z,17.30
2018-09-06T02:16:19.265Z,17.30
2018-09-06T02:18:46.618Z,17.30
2018-09-06T02:21:14.054Z,17.30
2018-09-06T02:23:41.456Z,17.30
2018-09-06T02:26:08.807Z,17.30
2018-09-06T02:28:36.186Z,17.30
2018-09-06T02:31:03.626Z,17.30
2018-09-06T02:33:30.999Z,17.30
2018-09-06T02:35:58.411Z,17.30
2018-09-06T02:38:25.755Z,17.30
2018-09-06T02:40:53.119Z,17.30
2018-09-06T02:43:20.563Z,17.30
2018-09-06T02:45:47.931Z,17.30
2018-09-06T02:48:15.264Z,17.30
2018-09-06T02:50:48.186Z,17.30
2018-09-06T02:53:16.225Z,17.30
2018-09-06T02:55:43.899Z,17.30
2018-09-06T02:58:11.279Z,17.30
2018-09-06T03:00:39.042Z,17.30
2018-09-06T03:03:06.456Z,17.40
2018-09-06T03:05:33.858Z,17.30
2018-09-06T03:08:01.557Z,17.30
2018-09-06T03:10:32.660Z,17.30
2018-09-06T03:13:00.043Z,17.30
2018-09-06T03:15:27.456Z,17.20
2018-09-06T03:17:54.810Z,17.20
2018-09-06T03:20:22.243Z,17.20
2018-09-06T03:22:49.654Z,17.20
2018-09-06T03:25:17.001Z,17.10
2018-09-06T03:27:44.359Z,17.10
2018-09-06T03:30:11.714Z,17.10
2018-09-06T03:32:39.049Z,17.10
2018-09-06T03:35:06.474Z,17.10
2018-09-06T03:37:33.927Z,17.00
2018-09-06T03:40:01.275Z,17.00
2018-09-06T03:42:28.623Z,17.00
2018-09-06T03:44:56.036Z,17.00
2018-09-06T03:47:23.422Z,17.00
2018-09-06T03:49:50.759Z,17.00
2018-09-06T03:52:18.118Z,16.90
2018-09-06T03:54:45.473Z,16.90
2018-09-06T03:57:12.830Z,16.90
2018-09-06T03:59:40.266Z,16.90
2018-09-06T04:02:07.680Z,16.90
2018-09-06T04:04:35.036Z,16.80
2018-09-06T04:07:03.133Z,16.80
2018-09-06T04:09:30.511Z,16.80
2018-09-06T04:11:57.898Z,16.80
2018-09-06T04:14:25.685Z,16.80
2018-09-06T04:16:53.145Z,16.70
2018-09-06T04:19:20.487Z,16.70
2018-09-06T04:21:47.832Z,16.70
2018-09-06T04:24:15.286Z,16.70
2018-09-06T04:26:42.606Z,16.70
2018-09-06T04:29:10.060Z,16.60
2018-09-06T04:31:37.394Z,16.60
2018-09-06T04:34:05.880Z,16.60
2018-09-06T04:36:34.292Z,16.60
2018-09-06T04:39:01.729Z,16.50
2018-09-06T04:41:29.057Z,16.60
2018-09-06T04:43:56.470Z,16.60
2018-09-06T04:46:23.911Z,16.60
2018-09-06T04:48:51.327Z,16.60
2018-09-06T04:51:18.671Z,16.60
2018-09-06T04:53:46.056Z,16.60
2018-09-06T04:56:13.387Z,16.60
2018-09-06T04:58:40.738Z,16.70
2018-09-06T05:01:08.099Z,16.70
2018-09-06T05:03:35.460Z,16.80
2018-09-06T05:06:02.852Z,16.80
2018-09-06T05:08:30.211Z,16.90
2018-09-06T05:10:57.754Z,17.00
2018-09-06T05:13:25.123Z,17.00
2018-09-06T05:15:52.475Z,17.10
2018-09-06T05:18:19.953Z,17.20
2018-09-06T05:20:47.373Z,17.20
2018-09-06T05:23:14.782Z,17.20
2018-09-06T05:25:42.117Z,17.20
2018-09-06T05:28:09.466Z,17.30
2018-09-06T05:30:36.823Z,17.40
2018-09-06T05:33:04.530Z,17.40
2018-09-06T05:35:31.884Z,17.50
2018-09-06T05:37:59.268Z,17.50
2018-09-06T05:40:26.751Z,17.70
2018-09-06T05:42:54.135Z,17.80
2018-09-06T05:45:21.498Z,18.00
2018-09-06T05:47:54.869Z,18.10
2018-09-06T05:50:22.208Z,18.20
2018-09-06T05:52:49.607Z,18.30
2018-09-06T05:55:17.018Z,18.30
2018-09-06T05:57:44.442Z,18.50
2018-09-06T06:00:17.436Z,18.50
2018-09-06T06:02:44.856Z,18.40
2018-09-06T06:05:12.313Z,18.60
2018-09-06T06:08:49.461Z,18.60
2018-09-06T06:11:17.307Z,18.70
2018-09-06T06:13:44.814Z,18.80
2018-09-06T06:16:12.963Z,18.80
2018-09-06T06:18:41.812Z,18.90
2018-09-06T06:21:09.253Z,18.90
2018-09-06T06:23:36.732Z,18.90
2018-09-06T06:26:04.403Z,18.90
2018-09-06T06:28:31.670Z,18.80
2018-09-06T06:30:59.143Z,18.80
2018-09-06T06:33:26.663Z,18.90
2018-09-06T06:35:54.173Z,18.80
2018-09-06T06:38:21.569Z,18.90
2018-09-06T06:40:48.987Z,18.90
2018-09-06T06:43:16.370Z,18.90
2018-09-06T06:45:43.735Z,18.80
2018-09-06T06:48:11.187Z,18.90
2018-09-06T06:50:38.709Z,18.80
2018-09-06T06:53:06.580Z,18.90
2018-09-06T06:55:33.950Z,18.90
2018-09-06T06:58:01.847Z,18.90
2018-09-06T07:00:29.386Z,19.00
2018-09-06T07:02:57.302Z,19.00
2018-09-06T07:05:24.720Z,19.00
2018-09-06T07:07:52.082Z,19.00
2018-09-06T07:10:19.465Z,19.00
2018-09-06T07:12:46.857Z,19.00
2018-09-06T07:15:14.351Z,19.10
2018-09-06T07:17:42.475Z,19.10
2018-09-06T07:20:09.915Z,19.20
2018-09-06T07:22:37.383Z,19.30
2018-09-06T07:25:05.041Z,19.50
2018-09-06T07:27:32.956Z,19.50
2018-09-06T07:30:00.680Z,19.50
2018-09-06T07:32:28.127Z,19.50
2018-09-06T07:34:55.523Z,19.60
2018-09-06T07:37:22.879Z,19.60
2018-09-06T07:39:52.809Z,19.60
2018-09-06T07:42:20.282Z,19.70
2018-09-06T07:44:47.771Z,19.80
2018-09-06T07:47:15.099Z,20.00
2018-09-06T07:49:42.532Z,20.20
2018-09-06T07:52:09.947Z,20.30
2018-09-06T07:54:37.353Z,20.40
2018-09-06T07:57:04.699Z,20.50
2018-09-06T07:59:32.053Z,20.50
2018-09-06T08:01:59.408Z,20.60
2018-09-06T08:04:26.825Z,20.70
2018-09-06T08:06:54.252Z,20.80
2018-09-06T08:09:21.623Z,20.80
2018-09-06T08:11:49.096Z,20.80
2018-09-06T08:14:16.578Z,20.80
2018-09-06T08:16:43.943Z,21.00
2018-09-06T08:19:11.431Z,21.00
2018-09-06T08:21:38.815Z,21.00
2018-09-06T08:24:06.331Z,20.90
2018-09-06T08:26:33.630Z,21.00
2018-09-06T08:29:01.051Z,21.10
2018-09-06T08:31:28.542Z,21.20
2018-09-06T08:33:55.829Z,21.20
2018-09-06T08:36:23.306Z,21.30
2018-09-06T08:38:50.646Z,21.40
2018-09-06T08:41:18.016Z,21.50
2018-09-06T08:43:45.433Z,21.60
2018-09-06T08:46:12.839Z,21.70
2018-09-06T08:48:40.207Z,21.80
2018-09-06T08:51:07.726Z,21.90
2018-09-06T08:53:35.195Z,22.00
2018-09-06T08:56:02.558Z,22.10
2018-09-06T08:58:29.959Z,22.20
2018-09-06T09:01:02.810Z,22.20
2018-09-06T09:03:30.269Z,22.20
2018-09-06T09:05:57.781Z,22.30
2018-09-06T09:08:25.329Z,22.30
2018-09-06T09:10:52.660Z,22.40
2018-09-06T09:13:20.018Z,22.50
2018-09-06T09:15:47.399Z,22.60
2018-09-06T09:18:14.849Z,22.60
2018-09-06T09:20:42.199Z,22.70
2018-09-06T09:23:09.652Z,22.80
2018-09-06T09:25:37.083Z,22.90
2018-09-06T09:28:04.350Z,22.90
2018-09-06T09:30:31.833Z,23.00
2018-09-06T09:32:59.175Z,23.00
2018-09-06T09:35:26.580Z,23.00
2018-09-06T09:37:53.928Z,23.00
2018-09-06T09:40:21.343Z,23.00
2018-09-06T09:42:48.770Z,23.20
2018-09-06T09:45:16.765Z,23.20
2018-09-06T09:47:44.999Z,23.10
2018-09-06T09:52:40.064Z,23.20
2018-09-06T09:55:07.424Z,23.30
2018-09-06T09:57:34.990Z,23.30
2018-09-06T10:00:02.547Z,23.30
2018-09-06T10:02:35.471Z,23.40
2018-09-06T10:05:08.335Z,23.50
2018-09-06T10:07:48.448Z,23.50
2018-09-06T10:10:15.926Z,23.50
2018-09-06T10:12:43.705Z,23.50
2018-09-06T10:15:12.712Z,23.60
2018-09-06T10:17:40.265Z,23.70
2018-09-06T10:20:07.863Z,23.70
2018-09-06T10:22:35.307Z,23.70
2018-09-06T10:25:02.709Z,23.70
2018-09-06T10:27:30.144Z,23.70
2018-09-06T10:29:57.537Z,23.70
2018-09-06T10:32:25.103Z,23.70
2018-09-06T10:34:52.474Z,23.70
2018-09-06T10:37:19.830Z,23.70
2018-09-06T10:39:47.238Z,23.60
2018-09-06T10:42:14.588Z,23.60
2018-09-06T10:44:41.936Z,23.70
2018-09-06T10:47:09.314Z,23.90
2018-09-06T10:49:36.736Z,24.00
2018-09-06T10:52:04.124Z,24.10
2018-09-06T10:54:31.504Z,24.30
2018-09-06T10:56:58.847Z,24.30
2018-09-06T10:59:26.190Z,24.30
2018-09-06T11:01:53.635Z,24.30
2018-09-06T11:04:22.050Z,24.20
2018-09-06T11:06:49.438Z,24.30
2018-09-06T11:09:16.840Z,24.30
2018-09-06T11:11:44.180Z,24.40
2018-09-06T11:14:11.589Z,24.40
2018-09-06T11:16:38.966Z,24.50
2018-09-06T11:19:06.447Z,24.60
2018-09-06T11:21:33.942Z,24.80
2018-09-06T11:24:01.270Z,25.00
2018-09-06T11:26:28.858Z,25.00
2018-09-06T11:28:56.289Z,25.10
2018-09-06T11:31:23.646Z,25.00
2018-09-06T11:33:51.023Z,25.00
2018-09-06T11:36:18.453Z,25.10
2018-09-06T11:38:45.935Z,25.20
2018-09-06T11:41:14.054Z,25.30
2018-09-06T11:43:41.547Z,25.50
2018-09-06T11:46:09.114Z,25.60
2018-09-06T11:48:36.536Z,25.70
2018-09-06T11:51:04.211Z,25.90
2018-09-06T11:53:31.598Z,25.90
2018-09-06T11:55:58.984Z,26.00
2018-09-06T11:58:26.627Z,26.00
2018-09-06T12:00:53.994Z,26.10
2018-09-06T12:03:21.476Z,26.10
2018-09-06T12:05:49.183Z,26.10
2018-09-06T12:08:17.180Z,26.30
2018-09-06T12:10:45.263Z,26.50
2018-09-06T12:13:14.666Z,26.70
2018-09-06T12:15:42.162Z,26.90
2018-09-06T12:18:09.610Z,27.00
2018-09-06T12:20:36.962Z,27.20
2018-09-06T12:23:04.335Z,27.20
2018-09-06T12:25:31.704Z,27.30
2018-09-06T12:27:59.230Z,27.20
2018-09-06T12:30:26.853Z,27.10
2018-09-06T12:32:54.309Z,27.00
2018-09-06T12:35:21.663Z,26.70
2018-09-06T12:37:49.223Z,26.60
2018-09-06T12:40:16.600Z,26.50
2018-09-06T12:42:44.055Z,26.50
2018-09-06T12:45:11.434Z,26.50
2018-09-06T12:47:39.006Z,26.50
2018-09-06T12:50:06.412Z,26.40
2018-09-06T12:52:33.881Z,26.50
2018-09-06T12:55:01.239Z,26.50
2018-09-06T12:57:28.614Z,26.60
2018-09-06T12:59:56.987Z,26.70
2018-09-06T13:02:24.478Z,26.80
2018-09-06T13:04:51.896Z,26.90
2018-09-06T13:07:19.314Z,27.10
2018-09-06T13:09:46.717Z,27.10
2018-09-06T13:12:14.146Z,27.10
2018-09-06T13:14:41.889Z,27.10
2018-09-06T13:17:15.955Z,27.20
2018-09-06T13:19:43.405Z,27.20
2018-09-06T13:22:10.853Z,27.10
2018-09-06T13:24:38.368Z,27.00
2018-09-06T13:27:05.814Z,27.00
2018-09-06T13:29:34.282Z,27.10
2018-09-06T13:32:01.856Z,27.10
2018-09-06T13:34:29.311Z,27.00
2018-09-06T13:36:57.011Z,27.00
2018-09-06T13:39:24.832Z,27.10
2018-09-06T13:41:52.215Z,27.00
2018-09-06T13:44:19.569Z,27.00
2018-09-06T13:46:46.955Z,27.10
2018-09-06T13:49:14.350Z,27.20
2018-09-06T13:51:41.716Z,27.30
2018-09-06T13:54:09.067Z,27.40
2018-09-06T13:56:36.556Z,27.40
2018-09-06T13:59:03.917Z,27.40
2018-09-06T14:01:31.307Z,27.40
2018-09-06T14:03:58.752Z,27.50
2018-09-06T14:06:26.109Z,27.50
2018-09-06T14:08:53.632Z,27.50
2018-09-06T14:11:21.047Z,27.40
2018-09-06T14:13:48.492Z,27.30
2018-09-06T14:16:15.850Z,27.20
2018-09-06T14:18:43.267Z,27.30
2018-09-06T14:21:10.804Z,27.10
2018-09-06T14:23:38.489Z,27.10
2018-09-06T14:26:06.134Z,26.90
2018-09-06T14:28:33.936Z,27.00
2018-09-06T14:31:01.365Z,27.10
2018-09-06T14:33:28.783Z,27.30
2018-09-06T14:35:56.245Z,27.50
2018-09-06T14:38:23.860Z,27.60
2018-09-06T14:40:51.904Z,27.60
2018-09-06T14:43:19.285Z,27.70
2018-09-06T14:45:46.757Z,28.00
2018-09-06T14:48:14.382Z,28.20
2018-09-06T14:50:43.055Z,28.50
2018-09-06T14:53:10.517Z,28.70
2018-09-06T14:55:37.880Z,28.70
2018-09-06T14:58:05.274Z,28.80
2018-09-06T15:00:33.525Z,28.90
2018-09-06T15:03:01.253Z,28.90
2018-09-06T15:05:29.162Z,28.80
2018-09-06T15:07:56.598Z,28.80
2018-09-06T15:10:24.174Z,28.60
2018-09-06T15:12:51.509Z,28.70
2018-09-06T15:15:19.608Z,28.70
2018-09-06T15:17:46.942Z,29.00
2018-09-06T15:20:14.361Z,28.90
2018-09-06T15:22:41.767Z,29.00
2018-09-06T15:25:09.246Z,29.10
2018-09-06T15:27:36.719Z,29.20
2018-09-06T15:30:04.259Z,29.20
2018-09-06T15:32:31.849Z,29.40
2018-09-06T15:34:59.192Z,29.70
2018-09-06T15:37:26.600Z,29.80
2018-09-06T15:39:54.050Z,30.00
2018-09-06T15:42:21.467Z,30.00
2018-09-06T15:44:48.927Z,30.20
2018-09-06T15:47:16.439Z,30.50
2018-09-06T15:49:43.991Z,31.00
2018-09-06T15:52:11.250Z,31.60
2018-09-06T15:54:38.666Z,32.50
2018-09-06T15:57:06.064Z,32.90
2018-09-06T15:59:33.435Z,33.10
2018-09-06T16:02:00.808Z,33.30
2018-09-06T16:04:28.323Z,33.50
2018-09-06T16:06:55.842Z,33.70
2018-09-06T16:09:23.309Z,34.00
2018-09-06T16:11:50.780Z,34.00
2018-09-06T16:14:18.156Z,34.20
2018-09-06T16:16:45.627Z,34.30
2018-09-06T16:19:13.015Z,33.80
2018-09-06T16:21:40.419Z,33.30
2018-09-06T16:24:07.833Z,32.80
2018-09-06T16:26:35.527Z,32.00
2018-09-06T16:29:03.167Z,31.30
2018-09-06T16:31:30.661Z,30.60
2018-09-06T16:33:58.357Z,29.80
2018-09-06T16:36:27.186Z,29.20
2018-09-06T16:38:54.514Z,28.50
2018-09-06T16:46:51.227Z,27.20
2018-09-06T16:49:19.280Z,26.80
2018-09-06T16:51:46.727Z,26.40
2018-09-06T16:54:14.505Z,26.10
2018-09-06T16:56:42.931Z,25.70
2018-09-06T16:59:10.459Z,25.60
2018-09-06T17:01:38.078Z,25.70
2018-09-06T17:04:05.763Z,25.90
2018-09-06T17:06:33.691Z,26.00
2018-09-06T17:09:01.082Z,26.10
2018-09-06T17:11:28.527Z,26.20
2018-09-06T17:13:56.322Z,26.40
2018-09-06T17:16:23.719Z,26.70
2018-09-06T17:18:51.202Z,26.70
2018-09-06T17:21:18.949Z,26.50
2018-09-06T17:23:46.452Z,26.10
2018-09-06T17:26:14.057Z,25.60
2018-09-06T17:28:41.943Z,25.10
2018-09-06T17:31:09.448Z,24.70
2018-09-06T17:33:36.844Z,24.30
2018-09-06T17:36:04.398Z,23.90
2018-09-06T17:38:31.927Z,23.60
2018-09-06T17:40:59.350Z,23.40
2018-09-06T17:43:26.734Z,23.20
2018-09-06T17:45:54.126Z,23.00
2018-09-06T17:48:21.542Z,22.80
2018-09-06T17:50:48.884Z,22.70
2018-09-06T17:53:17.422Z,22.60
2018-09-06T17:55:45.292Z,22.50
2018-09-06T17:58:14.769Z,22.30
2018-09-06T18:00:45.347Z,22.20
2018-09-06T18:03:13.016Z,22.10
2018-09-06T18:05:40.683Z,22.00
2018-09-06T18:08:08.309Z,21.90
2018-09-06T18:10:35.965Z,21.80
2018-09-06T18:13:03.405Z,21.70
2018-09-06T18:15:31.072Z,21.70
2018-09-06T18:17:58.640Z,21.60
2018-09-06T18:20:26.088Z,21.50
2018-09-06T18:22:55.335Z,21.40
2018-09-06T18:25:22.919Z,21.40
2018-09-06T18:27:50.431Z,21.30
2018-09-06T18:30:17.936Z,21.30
2018-09-06T18:32:45.660Z,21.30
2018-09-06T18:35:13.327Z,21.20
2018-09-06T18:37:40.823Z,21.10
2018-09-06T18:40:08.775Z,21.10
2018-09-06T18:42:36.235Z,21.00
2018-09-06T18:45:03.937Z,20.90
2018-09-06T18:47:31.370Z,20.80
2018-09-06T18:52:32.689Z,20.70
2018-09-06T18:55:00.079Z,20.70
2018-09-06T18:57:27.442Z,20.70
2018-09-06T18:59:54.862Z,20.70
2018-09-06T19:02:22.380Z,20.70
2018-09-06T19:04:49.834Z,20.70
2018-09-06T19:07:17.331Z,20.60
2018-09-06T19:09:44.781Z,20.50
2018-09-06T19:12:12.235Z,20.50
2018-09-06T19:14:39.704Z,20.50
2018-09-06T19:17:07.088Z,20.50
2018-09-06T19:19:34.570Z,20.50
2018-09-06T19:22:01.980Z,20.40
2018-09-06T19:28:00.593Z,20.40
2018-09-06T19:30:28.253Z,20.40
2018-09-06T19:32:55.592Z,20.30
2018-09-06T19:35:23.118Z,20.30
2018-09-06T19:37:50.784Z,20.30
2018-09-06T19:40:18.242Z,20.20
2018-09-06T19:42:45.692Z,20.30
2018-09-06T19:45:13.251Z,20.20
2018-09-06T19:47:40.933Z,20.10
2018-09-06T19:50:08.424Z,20.10
2018-09-06T19:52:36.183Z,20.10
2018-09-06T19:55:03.679Z,20.00
2018-09-06T19:57:31.155Z,19.90
2018-09-06T19:59:58.680Z,20.00
2018-09-06T20:02:26.948Z,20.00
2018-09-06T20:04:55.100Z,19.90
2018-09-06T20:07:22.630Z,19.90
2018-09-06T20:09:50.120Z,19.90
2018-09-06T20:12:17.563Z,19.80
2018-09-06T20:14:44.993Z,19.80
2018-09-06T20:17:12.469Z,19.80
2018-09-06T20:19:39.893Z,19.80
2018-09-06T20:22:09.409Z,19.80
2018-09-06T20:24:36.891Z,19.80
2018-09-06T20:27:04.526Z,19.70
2018-09-06T20:29:31.895Z,19.70
2018-09-06T20:31:59.368Z,19.80
2018-09-06T20:34:27.611Z,19.70
2018-09-06T20:36:55.189Z,19.70
2018-09-06T20:39:22.540Z,19.70
2018-09-06T20:41:50.080Z,19.70
2018-09-06T20:44:17.456Z,19.70
2018-09-06T20:46:46.539Z,19.70
2018-09-06T20:49:13.927Z,19.70
2018-09-06T20:51:41.420Z,19.70
2018-09-06T20:54:08.870Z,19.70
2018-09-06T20:56:36.305Z,19.60
2018-09-06T20:59:04.214Z,19.60
2018-09-06T21:01:31.703Z,19.60
2018-09-06T21:04:00.304Z,19.50
2018-09-06T21:06:28.112Z,19.50
2018-09-06T21:08:55.878Z,19.50
2018-09-06T21:11:23.461Z,19.40
2018-09-06T21:13:50.868Z,19.40
2018-09-06T21:16:18.365Z,19.40
2018-09-06T21:18:46.735Z,19.40
2018-09-06T21:21:14.143Z,19.30
2018-09-06T21:23:41.655Z,19.20
2018-09-06T21:26:09.463Z,19.20
2018-09-06T21:28:37.256Z,19.20
2018-09-06T21:31:04.782Z,19.20
2018-09-06T21:33:32.502Z,19.20
2018-09-06T21:35:59.870Z,19.10
2018-09-06T21:38:27.340Z,19.10
2018-09-06T21:40:54.786Z,19.10
2018-09-06T21:43:22.972Z,19.00
2018-09-06T21:45:50.339Z,19.00
2018-09-06T21:48:17.722Z,19.00
2018-09-06T21:50:45.112Z,19.00
2018-09-06T21:53:12.559Z,18.90
2018-09-06T21:55:39.976Z,18.90
2018-09-06T21:58:08.774Z,18.80
2018-09-06T22:00:36.340Z,18.80
2018-09-06T22:03:09.658Z,18.80
2018-09-06T22:05:37.075Z,18.80
2018-09-06T22:08:04.642Z,18.80
2018-09-06T22:10:32.051Z,18.80
2018-09-06T22:12:59.574Z,18.70
2018-09-06T22:15:27.111Z,18.70
2018-09-06T22:17:54.602Z,18.60
2018-09-06T22:20:22.109Z,18.60
2018-09-06T22:22:49.479Z,18.50
2018-09-06T22:25:16.924Z,18.50
2018-09-06T22:27:44.375Z,18.50
2018-09-06T22:30:11.820Z,18.50
2018-09-06T22:32:39.317Z,18.50
2018-09-06T22:35:06.655Z,18.50
2018-09-06T22:37:34.111Z,18.50
2018-09-06T22:40:01.663Z,18.50
2018-09-06T22:42:29.256Z,18.40
2018-09-06T22:47:54.915Z,18.40
2018-09-06T22:50:22.383Z,18.30
2018-09-06T22:52:49.755Z,18.30
2018-09-06T22:55:17.107Z,18.20
2018-09-06T22:57:44.520Z,18.20
2018-09-06T23:00:11.976Z,18.10
2018-09-06T23:03:45.919Z,18.10
2018-09-06T23:06:13.380Z,18.10
2018-09-06T23:08:40.851Z,18.00
2018-09-06T23:11:08.295Z,18.10
2018-09-06T23:13:35.714Z,18.00
2018-09-06T23:16:03.130Z,18.10
2018-09-06T23:18:30.494Z,18.00
2018-09-06T23:20:57.845Z,18.00
2018-09-06T23:23:25.247Z,18.00
2018-09-06T23:25:52.719Z,18.00
2018-09-06T23:28:20.179Z,18.00
2018-09-06T23:30:47.539Z,17.90
2018-09-06T23:33:14.926Z,17.90
2018-09-06T23:35:44.671Z,17.80
2018-09-06T23:38:12.591Z,17.80
2018-09-06T23:40:44.323Z,17.70
2018-09-06T23:43:11.805Z,17.70
2018-09-06T23:45:39.243Z,17.70
2018-09-06T23:48:06.721Z,17.80
2018-09-06T23:50:34.158Z,17.80
2018-09-06T23:53:01.559Z,17.80
2018-09-06T23:55:29.010Z,17.80
2018-09-06T23:57:56.423Z,17.80
